createdAt,value
2023-05-06T00:00:06.841Z,9.678075
2023-05-06T00:01:06.810Z,9.678112
2023-05-06T00:02:06.880Z,9.678128
2023-05-06T00:03:06.895Z,9.678151
2023-05-06T00:04:06.909Z,9.678102
2023-05-06T00:05:06.967Z,9.678096
2023-05-06T00:06:06.752Z,9.678077
2023-05-06T00:07:06.782Z,9.678136
2023-05-06T00:08:06.763Z,9.678077
2023-05-06T00:09:06.739Z,9.678112
2023-05-06T00:10:06.730Z,9.678109
2023-05-06T00:11:06.758Z,9.678125
2023-05-06T00:12:06.708Z,9.678074
2023-05-06T00:13:06.737Z,9.678025
2023-05-06T00:14:06.714Z,9.678099
2023-05-06T00:15:06.752Z,9.678097
2023-05-06T00:16:06.692Z,9.678059
2023-05-06T00:17:06.666Z,9.678107
2023-05-06T00:18:06.695Z,9.678081
2023-05-06T00:19:06.648Z,9.678074
2023-05-06T00:20:06.662Z,9.678085
2023-05-06T00:21:06.640Z,9.678101
2023-05-06T00:22:06.629Z,9.678092
2023-05-06T00:23:06.624Z,9.678074
2023-05-06T00:24:06.623Z,9.678074
2023-05-06T00:25:06.691Z,9.678143
2023-05-06T00:26:06.617Z,9.678158
2023-05-06T00:27:06.595Z,9.678078
2023-05-06T00:28:06.605Z,9.678082
2023-05-06T00:29:06.608Z,9.678046
2023-05-06T00:30:06.567Z,9.678142
2023-05-06T00:31:06.570Z,9.678095
2023-05-06T00:32:06.548Z,9.678041
2023-05-06T00:33:06.610Z,9.678047
2023-05-06T00:34:06.549Z,9.678074
2023-05-06T00:35:06.692Z,9.678067
2023-05-06T00:36:06.548Z,9.678075
2023-05-06T00:37:06.507Z,9.678110
2023-05-06T00:38:06.522Z,9.678092
2023-05-06T00:39:06.509Z,9.678092
2023-05-06T00:40:06.509Z,9.678043
2023-05-06T00:41:06.483Z,9.678026
2023-05-06T00:42:06.467Z,9.678075
2023-05-06T00:43:06.477Z,9.678076
2023-05-06T00:44:06.628Z,9.678085
2023-05-06T00:45:06.542Z,9.678102
2023-05-06T00:46:06.591Z,9.678107
2023-05-06T00:47:06.424Z,9.678122
2023-05-06T00:48:06.493Z,9.678117
2023-05-06T00:49:06.432Z,9.678085
2023-05-06T00:50:06.409Z,9.678076
2023-05-06T00:51:06.404Z,9.678103
2023-05-06T00:52:06.408Z,9.678061
2023-05-06T00:53:06.400Z,9.678074
2023-05-06T00:54:06.378Z,9.678047
2023-05-06T00:55:06.438Z,9.678057
2023-05-06T00:56:06.359Z,9.678121
2023-05-06T00:57:06.360Z,9.678091
2023-05-06T00:58:06.359Z,9.678072
2023-05-06T00:59:06.356Z,9.678008
2023-05-06T01:00:06.381Z,9.678032
2023-05-06T01:01:06.387Z,9.678085
2023-05-06T01:02:06.371Z,9.678121
2023-05-06T01:03:06.514Z,9.678121
2023-05-06T01:04:06.321Z,9.678076
2023-05-06T01:05:06.408Z,9.678043
2023-05-06T01:06:06.282Z,9.678103
2023-05-06T01:07:06.282Z,9.677997
2023-05-06T01:08:06.295Z,9.678076
2023-05-06T01:09:06.319Z,9.678102
2023-05-06T01:10:06.244Z,9.678075
2023-05-06T01:11:06.264Z,9.678073
2023-05-06T01:12:06.218Z,9.678059
2023-05-06T01:13:06.269Z,9.678045
2023-05-06T01:14:06.292Z,9.678009
2023-05-06T01:15:06.523Z,9.678026
2023-05-06T01:16:06.210Z,9.678026
2023-05-06T01:17:06.275Z,9.678032
2023-05-06T01:18:06.245Z,9.678039
2023-05-06T01:19:06.203Z,9.678033
2023-05-06T01:20:06.175Z,9.678042
2023-05-06T01:21:06.204Z,9.678012
2023-05-06T01:22:06.172Z,9.678028
2023-05-06T01:23:06.174Z,9.678018
2023-05-06T01:24:06.126Z,9.678057
2023-05-06T01:25:06.147Z,9.678053
2023-05-06T01:26:06.134Z,9.678036
2023-05-06T01:27:06.146Z,9.678049
2023-05-06T01:28:06.120Z,9.678041
2023-05-06T01:29:06.116Z,9.678087
2023-05-06T01:30:06.087Z,9.678098
2023-05-06T01:31:06.144Z,9.678020
2023-05-06T01:32:06.171Z,9.678050
2023-05-06T01:33:06.138Z,9.678084
2023-05-06T01:34:06.061Z,9.678068
2023-05-06T01:35:06.100Z,9.678041
2023-05-06T01:36:06.040Z,9.678035
2023-05-06T01:37:06.027Z,9.678077
2023-05-06T01:38:06.089Z,9.678076
2023-05-06T01:39:06.024Z,9.678092
2023-05-06T01:40:06.002Z,9.678142
2023-05-06T01:41:06.004Z,9.678140
2023-05-06T01:42:05.982Z,9.678135
2023-05-06T01:43:05.997Z,9.678072
2023-05-06T01:44:06.048Z,9.678019
2023-05-06T01:45:05.986Z,9.678040
2023-05-06T01:46:06.002Z,9.678029
2023-05-06T01:47:05.966Z,9.678057
2023-05-06T01:48:06.036Z,9.678089
2023-05-06T01:49:05.990Z,9.678105
2023-05-06T01:50:05.971Z,9.678149
2023-05-06T01:51:05.928Z,9.678078
2023-05-06T01:52:05.907Z,9.678115
2023-05-06T01:53:05.941Z,9.678088
2023-05-06T01:54:05.913Z,9.678078
2023-05-06T01:55:06.043Z,9.678091
2023-05-06T01:56:05.932Z,9.678130
2023-05-06T01:57:05.901Z,9.678104
2023-05-06T01:58:05.854Z,9.678143
2023-05-06T01:59:05.864Z,9.678144
2023-05-06T02:00:05.861Z,9.678113
2023-05-06T02:01:05.940Z,9.678131
2023-05-06T02:02:06.028Z,9.678070
2023-05-06T02:03:05.931Z,9.678122
2023-05-06T02:04:05.931Z,9.678115
2023-05-06T02:05:05.828Z,9.678104
2023-05-06T02:06:05.824Z,9.678069
2023-05-06T02:07:05.813Z,9.678087
2023-05-06T02:08:05.812Z,9.678120
2023-05-06T02:09:05.825Z,9.678127
2023-05-06T02:10:05.840Z,9.678084
2023-05-06T02:11:05.806Z,9.678164
2023-05-06T02:12:05.811Z,9.678097
2023-05-06T02:13:05.791Z,9.678065
2023-05-06T02:14:05.809Z,9.678148
2023-05-06T02:15:05.851Z,9.678104
2023-05-06T02:16:05.789Z,9.678082
2023-05-06T02:17:05.822Z,9.678076
2023-05-06T02:18:05.731Z,9.678110
2023-05-06T02:19:05.712Z,9.678156
2023-05-06T02:20:05.872Z,9.678184
2023-05-06T02:21:05.700Z,9.678140
2023-05-06T02:22:05.689Z,9.678077
2023-05-06T02:23:05.737Z,9.678092
2023-05-06T02:24:05.696Z,9.678090
2023-05-06T02:25:05.687Z,9.678097
2023-05-06T02:26:05.662Z,9.678116
2023-05-06T02:27:05.660Z,9.678168
2023-05-06T02:28:05.654Z,9.678148
2023-05-06T02:29:05.649Z,9.678117
2023-05-06T02:30:05.630Z,9.678151
2023-05-06T02:31:05.665Z,9.678122
2023-05-06T02:32:05.626Z,9.678175
2023-05-06T02:33:05.608Z,9.678123
2023-05-06T02:34:05.606Z,9.678108
2023-05-06T02:35:05.598Z,9.678164
2023-05-06T02:36:05.642Z,9.678205
2023-05-06T02:37:05.568Z,9.678207
2023-05-06T02:38:05.568Z,9.678114
2023-05-06T02:39:05.545Z,9.678090
2023-05-06T02:40:05.551Z,9.678144
2023-05-06T02:41:05.568Z,9.678108
2023-05-06T02:42:05.531Z,9.678117
2023-05-06T02:43:05.523Z,9.678147
2023-05-06T02:44:05.520Z,9.678120
2023-05-06T02:45:05.500Z,9.678147
2023-05-06T02:46:05.544Z,9.678145
2023-05-06T02:47:05.571Z,9.678134
2023-05-06T02:48:05.514Z,9.678077
2023-05-06T02:49:05.471Z,9.678090
2023-05-06T02:50:05.485Z,9.678157
2023-05-06T02:51:05.471Z,9.678162
2023-05-06T02:52:05.505Z,9.678185
2023-05-06T02:53:05.456Z,9.678095
2023-05-06T02:54:05.443Z,9.678100
2023-05-06T02:55:05.414Z,9.678101
2023-05-06T02:56:05.450Z,9.678109
2023-05-06T02:57:05.427Z,9.678067
2023-05-06T02:58:05.426Z,9.678065
2023-05-06T02:59:05.422Z,9.678132
2023-05-06T03:00:05.413Z,9.678095
2023-05-06T03:01:05.443Z,9.678144
2023-05-06T03:02:05.405Z,9.678103
2023-05-06T03:03:05.407Z,9.678135
2023-05-06T03:04:05.402Z,9.678094
2023-05-06T03:05:05.363Z,9.678146
2023-05-06T03:06:05.361Z,9.678135
2023-05-06T03:07:05.331Z,9.678195
2023-05-06T03:08:05.391Z,9.678080
2023-05-06T03:09:05.320Z,9.678185
2023-05-06T03:10:05.352Z,9.678179
2023-05-06T03:11:06.797Z,9.678186
2023-05-06T03:12:05.316Z,9.678153
2023-05-06T03:13:05.318Z,9.678205
2023-05-06T03:14:05.294Z,9.678154
2023-05-06T03:15:05.274Z,9.678203
2023-05-06T03:16:05.325Z,9.678104
2023-05-06T03:17:05.290Z,9.678215
2023-05-06T03:18:05.365Z,9.678180
2023-05-06T03:19:05.262Z,9.678175
2023-05-06T03:20:05.242Z,9.678150
2023-05-06T03:21:05.392Z,9.678120
2023-05-06T03:22:05.238Z,9.678112
2023-05-06T03:23:05.257Z,9.678164
2023-05-06T03:24:05.267Z,9.678100
2023-05-06T03:25:05.186Z,9.678106
2023-05-06T03:26:05.196Z,9.678117
2023-05-06T03:27:05.172Z,9.678117
2023-05-06T03:28:05.181Z,9.678067
2023-05-06T03:29:05.220Z,9.678095
2023-05-06T03:30:05.175Z,9.678104
2023-05-06T03:31:05.151Z,9.678143
2023-05-06T03:32:05.148Z,9.678152
2023-05-06T03:33:05.160Z,9.678226
2023-05-06T03:34:05.123Z,9.678193
2023-05-06T03:35:05.144Z,9.678163
2023-05-06T03:36:05.109Z,9.678161
2023-05-06T03:37:05.216Z,9.678146
2023-05-06T03:38:05.133Z,9.678146
2023-05-06T03:39:05.086Z,9.678175
2023-05-06T03:40:05.160Z,9.678138
2023-05-06T03:41:05.145Z,9.678124
2023-05-06T03:42:06.526Z,9.678115
2023-05-06T03:43:05.067Z,9.678105
2023-05-06T03:44:05.047Z,9.678093
2023-05-06T03:45:05.052Z,9.678097
2023-05-06T03:46:05.077Z,9.678102
2023-05-06T03:47:05.062Z,9.678129
2023-05-06T03:48:05.029Z,9.678153
2023-05-06T03:49:05.009Z,9.678119
2023-05-06T03:50:05.006Z,9.678071
2023-05-06T03:51:04.976Z,9.678102
2023-05-06T03:52:04.982Z,9.678138
2023-05-06T03:53:05.015Z,9.678143
2023-05-06T03:54:04.974Z,9.678128
2023-05-06T03:55:04.954Z,9.678136
2023-05-06T03:56:05.148Z,9.678118
2023-05-06T03:57:04.944Z,9.678083
2023-05-06T03:58:04.939Z,9.678109
2023-05-06T03:59:04.934Z,9.678149
2023-05-06T04:00:04.923Z,9.678136
2023-05-06T04:01:04.965Z,9.678122
2023-05-06T04:02:04.972Z,9.678142
2023-05-06T04:03:05.036Z,9.678140
2023-05-06T04:04:04.986Z,9.678132
2023-05-06T04:05:04.899Z,9.678127
2023-05-06T04:06:04.878Z,9.678154
2023-05-06T04:07:04.880Z,9.678148
2023-05-06T04:08:04.855Z,9.678138
2023-05-06T04:09:04.854Z,9.678160
2023-05-06T04:10:04.894Z,9.678195
2023-05-06T04:11:04.841Z,9.678174
2023-05-06T04:12:04.894Z,9.678132
2023-05-06T04:13:04.884Z,9.678177
2023-05-06T04:14:04.808Z,9.678202
2023-05-06T04:15:04.784Z,9.678142
2023-05-06T04:16:04.803Z,9.678130
2023-05-06T04:17:04.774Z,9.678129
2023-05-06T04:18:04.797Z,9.678121
2023-05-06T04:19:06.452Z,9.678100
2023-05-06T04:20:04.758Z,9.678108
2023-05-06T04:21:04.773Z,9.678142
2023-05-06T04:22:04.798Z,9.678114
2023-05-06T04:23:04.747Z,9.678107
2023-05-06T04:24:04.745Z,9.678106
2023-05-06T04:25:04.764Z,9.678158
2023-05-06T04:26:04.710Z,9.678160
2023-05-06T04:27:04.729Z,9.678130
2023-05-06T04:28:04.759Z,9.678100
2023-05-06T04:29:04.680Z,9.678104
2023-05-06T04:30:04.682Z,9.678094
2023-05-06T04:31:04.699Z,9.678119
2023-05-06T04:32:04.797Z,9.678146
2023-05-06T04:33:04.674Z,9.678141
2023-05-06T04:34:04.667Z,9.678145
2023-05-06T04:35:04.630Z,9.678190
2023-05-06T04:36:04.627Z,9.678160
2023-05-06T04:37:04.630Z,9.678146
2023-05-06T04:38:04.636Z,9.678124
2023-05-06T04:39:04.604Z,9.678145
2023-05-06T04:40:04.597Z,9.678161
2023-05-06T04:41:04.600Z,9.678140
2023-05-06T04:42:04.588Z,9.678134
2023-05-06T04:43:04.609Z,9.678190
2023-05-06T04:44:04.622Z,9.678189
2023-05-06T04:45:04.552Z,9.678189
2023-05-06T04:46:05.493Z,9.678179
2023-05-06T04:47:04.547Z,9.678178
2023-05-06T04:48:04.590Z,9.678146
2023-05-06T04:49:04.570Z,9.678115
2023-05-06T04:50:04.540Z,9.678145
2023-05-06T04:51:04.518Z,9.678198
2023-05-06T04:52:04.541Z,9.678182
2023-05-06T04:53:04.497Z,9.678164
2023-05-06T04:54:04.493Z,9.678100
2023-05-06T04:55:04.494Z,9.678159
2023-05-06T04:56:04.524Z,9.678102
2023-05-06T04:57:04.517Z,9.678099
2023-05-06T04:58:04.458Z,9.678165
2023-05-06T04:59:04.451Z,9.678119
2023-05-06T05:00:04.458Z,9.678138
2023-05-06T05:01:04.529Z,9.678175
2023-05-06T05:02:04.500Z,9.678226
2023-05-06T05:03:04.700Z,9.678159
2023-05-06T05:04:04.431Z,9.678147
2023-05-06T05:05:04.423Z,9.678127
2023-05-06T05:06:04.436Z,9.678185
2023-05-06T05:07:04.429Z,9.678171
2023-05-06T05:08:04.378Z,9.678155
2023-05-06T05:09:04.382Z,9.678199
2023-05-06T05:10:04.372Z,9.678213
2023-05-06T05:11:04.354Z,9.678267
2023-05-06T05:12:04.347Z,9.678185
2023-05-06T05:13:04.550Z,9.678217
2023-05-06T05:14:04.331Z,9.678219
2023-05-06T05:15:04.333Z,9.678209
2023-05-06T05:16:04.382Z,9.678279
2023-05-06T05:17:04.327Z,9.678228
2023-05-06T05:18:04.360Z,9.678182
2023-05-06T05:19:04.929Z,9.678242
2023-05-06T05:20:04.351Z,9.678196
2023-05-06T05:21:05.588Z,9.678201
2023-05-06T05:22:04.302Z,9.678238
2023-05-06T05:23:04.252Z,9.678243
2023-05-06T05:24:04.297Z,9.678205
2023-05-06T05:25:05.532Z,9.678204
2023-05-06T05:26:04.241Z,9.678160
2023-05-06T05:27:04.223Z,9.678192
2023-05-06T05:28:04.226Z,9.678215
2023-05-06T05:29:04.213Z,9.678231
2023-05-06T05:30:06.165Z,9.678239
2023-05-06T05:31:04.319Z,9.678261
2023-05-06T05:32:05.492Z,9.678217
2023-05-06T05:33:04.219Z,9.678211
2023-05-06T05:34:04.165Z,9.678224
2023-05-06T05:35:04.164Z,9.678241
2023-05-06T05:36:04.684Z,9.678243
2023-05-06T05:37:04.168Z,9.678164
2023-05-06T05:38:04.132Z,9.678175
2023-05-06T05:39:04.134Z,9.678162
2023-05-06T05:40:06.263Z,9.678185
2023-05-06T05:41:04.100Z,9.678199
2023-05-06T05:42:04.102Z,9.678197
2023-05-06T05:43:04.105Z,9.678155
2023-05-06T05:44:04.899Z,9.678151
2023-05-06T05:45:04.071Z,9.678114
2023-05-06T05:46:04.100Z,9.678105
2023-05-06T05:47:04.688Z,9.678094
2023-05-06T05:48:04.585Z,9.678110
2023-05-06T05:49:04.060Z,9.678171
2023-05-06T05:50:04.191Z,9.678209
2023-05-06T05:51:05.323Z,9.678150
2023-05-06T05:52:04.016Z,9.678136
2023-05-06T05:53:03.989Z,9.678148
2023-05-06T05:54:04.056Z,9.678161
2023-05-06T05:55:04.002Z,9.678149
2023-05-06T05:56:04.011Z,9.678149
2023-05-06T05:57:03.960Z,9.678152
2023-05-06T05:58:03.968Z,9.678160
2023-05-06T05:59:03.979Z,9.678151
2023-05-06T06:00:03.956Z,9.678141
2023-05-06T06:01:03.934Z,9.678141
2023-05-06T06:02:03.975Z,9.678190
2023-05-06T06:03:04.020Z,9.678200
2023-05-06T06:04:04.421Z,9.678216
2023-05-06T06:05:04.008Z,9.678213
2023-05-06T06:06:04.902Z,9.678202
2023-05-06T06:07:03.904Z,9.678186
2023-05-06T06:08:04.105Z,9.678170
2023-05-06T06:09:03.867Z,9.678184
2023-05-06T06:10:03.896Z,9.678202
2023-05-06T06:11:05.127Z,9.678212
2023-05-06T06:12:03.860Z,9.678226
2023-05-06T06:13:03.882Z,9.678203
2023-05-06T06:14:03.893Z,9.678168
2023-05-06T06:15:03.824Z,9.678170
2023-05-06T06:16:03.909Z,9.678178
2023-05-06T06:17:04.106Z,9.678168
2023-05-06T06:18:03.961Z,9.678185
2023-05-06T06:19:04.414Z,9.678202
2023-05-06T06:20:03.892Z,9.678226
2023-05-06T06:21:04.383Z,9.678205
2023-05-06T06:22:03.778Z,9.678190
2023-05-06T06:23:03.823Z,9.678208
2023-05-06T06:24:03.796Z,9.678197
2023-05-06T06:25:03.772Z,9.678152
2023-05-06T06:26:03.742Z,9.678178
2023-05-06T06:27:03.721Z,9.678162
2023-05-06T06:28:03.731Z,9.678139
2023-05-06T06:29:03.794Z,9.678141
2023-05-06T06:30:05.384Z,9.678144
2023-05-06T06:31:03.757Z,9.678233
2023-05-06T06:32:03.917Z,9.678248
2023-05-06T06:33:03.738Z,9.678179
2023-05-06T06:34:03.719Z,9.678159
2023-05-06T06:35:03.669Z,9.678161
2023-05-06T06:36:03.749Z,9.678187
2023-05-06T06:37:03.647Z,9.678203
2023-05-06T06:38:03.654Z,9.678178
2023-05-06T06:39:03.640Z,9.678139
2023-05-06T06:40:03.624Z,9.678167
2023-05-06T06:41:03.641Z,9.678142
2023-05-06T06:42:03.671Z,9.678120
2023-05-06T06:43:03.611Z,9.678168
2023-05-06T06:44:03.740Z,9.678193
2023-05-06T06:45:03.614Z,9.678181
2023-05-06T06:46:03.722Z,9.678125
2023-05-06T06:47:03.592Z,9.678149
2023-05-06T06:48:12.978Z,9.678161
2023-05-06T06:49:03.613Z,9.678163
2023-05-06T06:50:03.543Z,9.678155
2023-05-06T06:51:03.554Z,9.678127
2023-05-06T06:52:03.536Z,9.678116
2023-05-06T06:53:05.639Z,9.678144
2023-05-06T06:54:03.539Z,9.678149
2023-05-06T06:55:03.624Z,9.678129
2023-05-06T06:56:03.513Z,9.678137
2023-05-06T06:57:03.644Z,9.678142
2023-05-06T06:58:03.573Z,9.678143
2023-05-06T06:59:03.491Z,9.678164
2023-05-06T07:00:03.539Z,9.678117
2023-05-06T07:01:03.511Z,9.678120
2023-05-06T07:02:03.486Z,9.678124
2023-05-06T07:03:03.462Z,9.678098
2023-05-06T07:04:04.316Z,9.678098
2023-05-06T07:05:03.484Z,9.678127
2023-05-06T07:06:03.404Z,9.678124
2023-05-06T07:07:03.438Z,9.678140
2023-05-06T07:08:03.566Z,9.678123
2023-05-06T07:09:03.423Z,9.678098
2023-05-06T07:10:03.381Z,9.678124
2023-05-06T07:11:03.427Z,9.678124
2023-05-06T07:12:03.377Z,9.678130
2023-05-06T07:13:03.995Z,9.678145
2023-05-06T07:14:03.384Z,9.678117
2023-05-06T07:15:03.370Z,9.678144
2023-05-06T07:16:03.332Z,9.678172
2023-05-06T07:17:03.435Z,9.678185
2023-05-06T07:18:03.374Z,9.678165
2023-05-06T07:19:03.320Z,9.678155
2023-05-06T07:20:03.307Z,9.678153
2023-05-06T07:21:03.305Z,9.678093
2023-05-06T07:22:03.287Z,9.678132
2023-05-06T07:23:03.356Z,9.678129
2023-05-06T07:24:03.384Z,9.678138
2023-05-06T07:25:03.261Z,9.678159
2023-05-06T07:26:03.238Z,9.678106
2023-05-06T07:27:03.249Z,9.678123
2023-05-06T07:28:03.232Z,9.678126
2023-05-06T07:29:03.276Z,9.678166
2023-05-06T07:30:03.224Z,9.678134
2023-05-06T07:31:03.223Z,9.678150
2023-05-06T07:32:03.205Z,9.678158
2023-05-06T07:33:03.270Z,9.678163
2023-05-06T07:34:03.182Z,9.678144
2023-05-06T07:35:03.251Z,9.678143
2023-05-06T07:36:03.234Z,9.678112
2023-05-06T07:37:03.196Z,9.678128
2023-05-06T07:38:03.224Z,9.678130
2023-05-06T07:39:03.155Z,9.678107
2023-05-06T07:40:03.305Z,9.678142
2023-05-06T07:41:03.126Z,9.678141
2023-05-06T07:42:03.138Z,9.678108
2023-05-06T07:43:03.116Z,9.678142
2023-05-06T07:44:03.101Z,9.678113
2023-05-06T07:45:03.108Z,9.678136
2023-05-06T07:46:03.251Z,9.678116
2023-05-06T07:47:03.144Z,9.678148
2023-05-06T07:48:03.134Z,9.678128
2023-05-06T07:49:03.066Z,9.678118
2023-05-06T07:50:03.096Z,9.678120
2023-05-06T07:51:03.065Z,9.678107
2023-05-06T07:52:03.068Z,9.678091
2023-05-06T07:53:03.050Z,9.678076
2023-05-06T07:54:03.042Z,9.678097
2023-05-06T07:55:03.032Z,9.678158
2023-05-06T07:56:03.072Z,9.678138
2023-05-06T07:57:03.014Z,9.678114
2023-05-06T07:58:03.034Z,9.678097
2023-05-06T07:59:03.006Z,9.678112
2023-05-06T08:00:02.977Z,9.678164
2023-05-06T08:01:03.011Z,9.678100
2023-05-06T08:02:02.977Z,9.678121
2023-05-06T08:03:03.047Z,9.678123
2023-05-06T08:04:03.097Z,9.678073
2023-05-06T08:05:02.947Z,9.678114
2023-05-06T08:06:02.937Z,9.678114
2023-05-06T08:07:02.956Z,9.678123
2023-05-06T08:08:02.915Z,9.678100
2023-05-06T08:09:02.923Z,9.678224
2023-05-06T08:10:02.895Z,9.678178
2023-05-06T08:11:02.901Z,9.678144
2023-05-06T08:12:02.922Z,9.678152
2023-05-06T08:13:02.917Z,9.678138
2023-05-06T08:14:02.864Z,9.678073
2023-05-06T08:15:03.004Z,9.678077
2023-05-06T08:16:02.883Z,9.678161
2023-05-06T08:17:02.853Z,9.678126
2023-05-06T08:18:10.366Z,9.678113
2023-05-06T08:19:03.887Z,9.678112
2023-05-06T08:20:02.804Z,9.678161
2023-05-06T08:21:02.860Z,9.678231
2023-05-06T08:22:02.787Z,9.678121
2023-05-06T08:23:02.785Z,9.678128
2023-05-06T08:24:02.773Z,9.678144
2023-05-06T08:25:02.787Z,9.678078
2023-05-06T08:26:02.756Z,9.678137
2023-05-06T08:27:02.797Z,9.678117
2023-05-06T08:28:02.827Z,9.678060
2023-05-06T08:29:02.753Z,9.678035
2023-05-06T08:30:02.742Z,9.677984
2023-05-06T08:31:02.783Z,9.678110
2023-05-06T08:32:02.848Z,9.678151
2023-05-06T08:33:02.756Z,9.678150
2023-05-06T08:34:02.697Z,9.678095
2023-05-06T08:35:02.711Z,9.678111
2023-05-06T08:36:02.697Z,9.678119
2023-05-06T08:37:02.726Z,9.678134
2023-05-06T08:38:02.690Z,9.678179
2023-05-06T08:39:02.666Z,9.678164
2023-05-06T08:40:02.645Z,9.678101
2023-05-06T08:41:02.651Z,9.678119
2023-05-06T08:42:02.676Z,9.678100
2023-05-06T08:43:02.676Z,9.678141
2023-05-06T08:44:02.740Z,9.678171
2023-05-06T08:45:02.627Z,9.678123
2023-05-06T08:46:02.705Z,9.678145
2023-05-06T08:47:02.615Z,9.678152
2023-05-06T08:48:02.625Z,9.678141
2023-05-06T08:49:02.595Z,9.678113
2023-05-06T08:50:02.644Z,9.678138
2023-05-06T08:51:02.616Z,9.678159
2023-05-06T08:52:02.561Z,9.678149
2023-05-06T08:53:02.565Z,9.678123
2023-05-06T08:54:02.569Z,9.678107
2023-05-06T08:55:02.552Z,9.678103
2023-05-06T08:56:02.555Z,9.678126
2023-05-06T08:57:02.585Z,9.678111
2023-05-06T08:58:02.548Z,9.678123
2023-05-06T08:59:02.543Z,9.678108
2023-05-06T09:00:02.500Z,9.678115
2023-05-06T09:01:02.525Z,9.678093
2023-05-06T09:02:02.526Z,9.678048
2023-05-06T09:03:02.651Z,9.678066
2023-05-06T09:04:02.482Z,9.678113
2023-05-06T09:05:02.484Z,9.678115
2023-05-06T09:06:02.451Z,9.678109
2023-05-06T09:07:02.462Z,9.678091
2023-05-06T09:08:02.469Z,9.678108
2023-05-06T09:09:02.456Z,9.678144
2023-05-06T09:10:02.480Z,9.678154
2023-05-06T09:11:02.431Z,9.678096
2023-05-06T09:12:02.424Z,9.678116
2023-05-06T09:13:02.440Z,9.678110
2023-05-06T09:14:02.412Z,9.678104
2023-05-06T09:15:02.399Z,9.678087
2023-05-06T09:16:02.513Z,9.678096
2023-05-06T09:17:02.458Z,9.678102
2023-05-06T09:18:02.399Z,9.678101
2023-05-06T09:19:02.382Z,9.678142
2023-05-06T09:20:02.386Z,9.678150
2023-05-06T09:21:02.349Z,9.678169
2023-05-06T09:22:02.325Z,9.678148
2023-05-06T09:23:02.334Z,9.678181
2023-05-06T09:24:02.325Z,9.678140
2023-05-06T09:25:02.315Z,9.678103
2023-05-06T09:26:02.335Z,9.678144
2023-05-06T09:27:02.305Z,9.678175
2023-05-06T09:28:02.303Z,9.678198
2023-05-06T09:29:02.294Z,9.678176
2023-05-06T09:30:02.328Z,9.678177
2023-05-06T09:31:02.333Z,9.678162
2023-05-06T09:32:02.319Z,9.678089
2023-05-06T09:33:02.350Z,9.678144
2023-05-06T09:34:02.225Z,9.678142
2023-05-06T09:35:02.227Z,9.678117
2023-05-06T09:36:02.218Z,9.678156
2023-05-06T09:37:02.309Z,9.678180
2023-05-06T09:38:02.205Z,9.678136
2023-05-06T09:39:02.246Z,9.678122
2023-05-06T09:40:02.181Z,9.678143
2023-05-06T09:41:02.192Z,9.678075
2023-05-06T09:42:02.179Z,9.678117
2023-05-06T09:43:02.213Z,9.678117
2023-05-06T09:44:02.146Z,9.678124
2023-05-06T09:45:02.409Z,9.678149
2023-05-06T09:46:02.143Z,9.678149
2023-05-06T09:47:02.120Z,9.678090
2023-05-06T09:48:02.190Z,9.678133
2023-05-06T09:49:02.163Z,9.678103
2023-05-06T09:50:02.210Z,9.678062
2023-05-06T09:51:02.106Z,9.678095
2023-05-06T09:52:02.093Z,9.678064
2023-05-06T09:53:02.090Z,9.678052
2023-05-06T09:54:02.074Z,9.678074
2023-05-06T09:55:02.179Z,9.678095
2023-05-06T09:56:02.111Z,9.678084
2023-05-06T09:57:02.059Z,9.678091
2023-05-06T09:58:02.081Z,9.678093
2023-05-06T09:59:02.050Z,9.678083
2023-05-06T10:00:02.065Z,9.678082
2023-05-06T10:01:02.046Z,9.678094
2023-05-06T10:02:02.050Z,9.678089
2023-05-06T10:03:02.163Z,9.678082
2023-05-06T10:04:02.141Z,9.678129
2023-05-06T10:05:02.192Z,9.678101
2023-05-06T10:06:02.016Z,9.678114
2023-05-06T10:07:02.047Z,9.678079
2023-05-06T10:08:02.017Z,9.678063
2023-05-06T10:09:01.988Z,9.678060
2023-05-06T10:10:01.960Z,9.678061
2023-05-06T10:11:01.966Z,9.678067
2023-05-06T10:12:01.949Z,9.678102
2023-05-06T10:13:01.988Z,9.678084
2023-05-06T10:14:01.973Z,9.678083
2023-05-06T10:15:02.041Z,9.678092
2023-05-06T10:16:01.968Z,9.678108
2023-05-06T10:17:01.906Z,9.678104
2023-05-06T10:18:01.986Z,9.678114
2023-05-06T10:19:01.893Z,9.678101
2023-05-06T10:20:01.894Z,9.678093
2023-05-06T10:21:01.886Z,9.678111
2023-05-06T10:22:03.006Z,9.678106
2023-05-06T10:23:01.852Z,9.678083
2023-05-06T10:24:01.876Z,9.678087
2023-05-06T10:25:01.825Z,9.678144
2023-05-06T10:26:01.808Z,9.678084
2023-05-06T10:27:01.808Z,9.678124
2023-05-06T10:28:02.970Z,9.678165
2023-05-06T10:29:01.814Z,9.678139
2023-05-06T10:30:01.820Z,9.678130
2023-05-06T10:31:01.804Z,9.678142
2023-05-06T10:32:02.082Z,9.678117
2023-05-06T10:33:01.809Z,9.678122
2023-05-06T10:34:01.746Z,9.678109
2023-05-06T10:35:01.774Z,9.678117
2023-05-06T10:36:01.746Z,9.678110
2023-05-06T10:37:01.752Z,9.678118
2023-05-06T10:38:01.723Z,9.678105
2023-05-06T10:39:01.729Z,9.678073
2023-05-06T10:40:01.691Z,9.678053
2023-05-06T10:41:01.696Z,9.678035
2023-05-06T10:42:01.781Z,9.678090
2023-05-06T10:43:01.722Z,9.678090
2023-05-06T10:44:01.668Z,9.678123
2023-05-06T10:45:01.683Z,9.678114
2023-05-06T10:46:01.725Z,9.678107
2023-05-06T10:47:01.665Z,9.678121
2023-05-06T10:48:01.730Z,9.678074
2023-05-06T10:49:01.650Z,9.678074
2023-05-06T10:50:01.609Z,9.678027
2023-05-06T10:51:01.621Z,9.678105
2023-05-06T10:52:01.593Z,9.678123
2023-05-06T10:53:01.579Z,9.678112
2023-05-06T10:54:01.710Z,9.678109
2023-05-06T10:55:01.619Z,9.678087
2023-05-06T10:56:01.749Z,9.678071
2023-05-06T10:57:01.548Z,9.678041
2023-05-06T10:58:01.547Z,9.678085
2023-05-06T10:59:01.531Z,9.678066
2023-05-06T11:00:01.586Z,9.678080
2023-05-06T11:01:01.607Z,9.678114
2023-05-06T11:02:01.590Z,9.678037
2023-05-06T11:03:04.653Z,9.678048
2023-05-06T11:04:02.505Z,9.678114
2023-05-06T11:05:01.531Z,9.678131
2023-05-06T11:06:01.539Z,9.678137
2023-05-06T11:07:01.454Z,9.678112
2023-05-06T11:08:01.470Z,9.678128
2023-05-06T11:09:01.458Z,9.678156
2023-05-06T11:10:01.476Z,9.678092
2023-05-06T11:11:01.497Z,9.678097
2023-05-06T11:12:01.457Z,9.678158
2023-05-06T11:13:01.471Z,9.678125
2023-05-06T11:14:01.429Z,9.678131
2023-05-06T11:15:01.419Z,9.678198
2023-05-06T11:16:01.487Z,9.678194
2023-05-06T11:17:01.541Z,9.678230
2023-05-06T11:18:01.437Z,9.678184
2023-05-06T11:19:01.381Z,9.678179
2023-05-06T11:20:01.362Z,9.678212
2023-05-06T11:21:01.369Z,9.678178
2023-05-06T11:22:01.390Z,9.678153
2023-05-06T11:23:01.336Z,9.678182
2023-05-06T11:24:01.336Z,9.678197
2023-05-06T11:25:01.312Z,9.678232
2023-05-06T11:26:01.319Z,9.678286
2023-05-06T11:27:01.390Z,9.678177
2023-05-06T11:28:01.404Z,9.678178
2023-05-06T11:29:01.295Z,9.678137
2023-05-06T11:30:01.294Z,9.678170
2023-05-06T11:31:01.287Z,9.678113
2023-05-06T11:32:01.284Z,9.678114
2023-05-06T11:33:03.255Z,9.678106
2023-05-06T11:34:01.306Z,9.678109
2023-05-06T11:35:01.238Z,9.678127
2023-05-06T11:36:01.257Z,9.678118
2023-05-06T11:37:01.222Z,9.678141
2023-05-06T11:38:01.264Z,9.678136
2023-05-06T11:39:03.433Z,9.678109
2023-05-06T11:40:01.777Z,9.678173
2023-05-06T11:41:01.188Z,9.678168
2023-05-06T11:42:01.239Z,9.678160
2023-05-06T11:43:01.179Z,9.678167
2023-05-06T11:44:01.177Z,9.678156